sensor_id;sensor_type;location;lat;lon;timestamp;temperature;humidity
851;DHT22;412;51.400;7.480;2022-09-29T00:01:12;11.60;99.90
851;DHT22;412;51.400;7.480;2022-09-29T00:03:38;11.60;99.90
851;DHT22;412;51.400;7.480;2022-09-29T00:06:14;11.60;99.90
851;DHT22;412;51.400;7.480;2022-09-29T00:08:40;11.60;99.90
851;DHT22;412;51.400;7.480;2022-09-29T00:11:10;11.60;99.90
851;DHT22;412;51.400;7.480;2022-09-29T00:13:36;11.60;99.90
851;DHT22;412;51.400;7.480;2022-09-29T00:16:03;11.50;99.90
851;DHT22;412;51.400;7.480;2022-09-29T00:18:30;11.50;99.90
851;DHT22;412;51.400;7.480;2022-09-29T00:21:02;11.50;99.90
851;DHT22;412;51.400;7.480;2022-09-29T00:23:29;11.50;99.90
851;DHT22;412;51.400;7.480;2022-09-29T00:26:16;11.50;99.90
851;DHT22;412;51.400;7.480;2022-09-29T00:28:47;11.50;99.90
851;DHT22;412;51.400;7.480;2022-09-29T00:31:14;11.60;99.90
851;DHT22;412;51.400;7.480;2022-09-29T00:33:40;11.60;99.90
851;DHT22;412;51.400;7.480;2022-09-29T00:36:09;11.50;99.90
851;DHT22;412;51.400;7.480;2022-09-29T00:38:35;11.50;99.90
851;DHT22;412;51.400;7.480;2022-09-29T00:41:02;11.50;99.90
851;DHT22;412;51.400;7.480;2022-09-29T00:46:13;11.50;99.90
851;DHT22;412;51.400;7.480;2022-09-29T00:48:40;11.50;99.90
851;DHT22;412;51.400;7.480;2022-09-29T00:51:07;11.50;99.90
851;DHT22;412;51.400;7.480;2022-09-29T00:53:33;11.60;99.90
851;DHT22;412;51.400;7.480;2022-09-29T00:56:03;11.50;99.90
851;DHT22;412;51.400;7.480;2022-09-29T00:58:42;11.50;99.90
851;DHT22;412;51.400;7.480;2022-09-29T01:01:10;11.50;99.90
851;DHT22;412;51.400;7.480;2022-09-29T01:03:39;11.50;99.90
851;DHT22;412;51.400;7.480;2022-09-29T01:06:35;11.50;99.90
851;DHT22;412;51.400;7.480;2022-09-29T01:09:11;11.50;99.90
851;DHT22;412;51.400;7.480;2022-09-29T01:11:38;11.40;99.90
851;DHT22;412;51.400;7.480;2022-09-29T01:14:07;11.40;99.90
851;DHT22;412;51.400;7.480;2022-09-29T01:16:34;11.40;99.90
851;DHT22;412;51.400;7.480;2022-09-29T01:19:07;11.40;99.90
851;DHT22;412;51.400;7.480;2022-09-29T01:40:32;11.30;99.90
851;DHT22;412;51.400;7.480;2022-09-29T01:44:01;11.30;99.90
851;DHT22;412;51.400;7.480;2022-09-29T01:46:29;11.20;99.90
851;DHT22;412;51.400;7.480;2022-09-29T01:48:58;11.20;99.90
851;DHT22;412;51.400;7.480;2022-09-29T01:51:30;11.20;99.90
851;DHT22;412;51.400;7.480;2022-09-29T01:54:03;11.20;99.90
851;DHT22;412;51.400;7.480;2022-09-29T01:56:36;11.30;99.90
851;DHT22;412;51.400;7.480;2022-09-29T01:59:27;11.20;99.90
851;DHT22;412;51.400;7.480;2022-09-29T02:01:59;11.30;99.90
851;DHT22;412;51.400;7.480;2022-09-29T02:04:33;11.30;99.90
851;DHT22;412;51.400;7.480;2022-09-29T02:07:12;11.40;99.90
851;DHT22;412;51.400;7.480;2022-09-29T02:09:44;11.40;99.90
851;DHT22;412;51.400;7.480;2022-09-29T02:12:13;11.40;99.90
851;DHT22;412;51.400;7.480;2022-09-29T02:14:43;11.40;99.90
851;DHT22;412;51.400;7.480;2022-09-29T02:17:18;11.40;99.90
851;DHT22;412;51.400;7.480;2022-09-29T02:19:48;11.40;99.90
851;DHT22;412;51.400;7.480;2022-09-29T02:22:17;11.60;99.90
851;DHT22;412;51.400;7.480;2022-09-29T02:24:43;11.50;99.90
851;DHT22;412;51.400;7.480;2022-09-29T02:27:10;11.60;99.90
851;DHT22;412;51.400;7.480;2022-09-29T02:29:37;11.50;99.90
851;DHT22;412;51.400;7.480;2022-09-29T02:32:03;11.60;99.90
851;DHT22;412;51.400;7.480;2022-09-29T02:34:34;11.50;99.90
851;DHT22;412;51.400;7.480;2022-09-29T02:51:00;11.60;99.90
851;DHT22;412;51.400;7.480;2022-09-29T02:54:00;11.70;99.90
851;DHT22;412;51.400;7.480;2022-09-29T02:56:48;11.70;99.90
851;DHT22;412;51.400;7.480;2022-09-29T02:59:19;11.60;99.90
851;DHT22;412;51.400;7.480;2022-09-29T03:01:48;11.70;99.90
851;DHT22;412;51.400;7.480;2022-09-29T03:04:16;11.60;99.90
851;DHT22;412;51.400;7.480;2022-09-29T03:06:42;11.60;99.90
851;DHT22;412;51.400;7.480;2022-09-29T03:09:08;11.60;99.90
851;DHT22;412;51.400;7.480;2022-09-29T03:11:33;11.60;99.90
851;DHT22;412;51.400;7.480;2022-09-29T03:13:59;11.50;99.90
851;DHT22;412;51.400;7.480;2022-09-29T03:16:25;11.50;99.90
851;DHT22;412;51.400;7.480;2022-09-29T03:18:51;11.50;99.90
851;DHT22;412;51.400;7.480;2022-09-29T03:21:17;11.50;99.90
851;DHT22;412;51.400;7.480;2022-09-29T03:23:42;11.50;99.90
851;DHT22;412;51.400;7.480;2022-09-29T03:26:08;11.50;99.90
851;DHT22;412;51.400;7.480;2022-09-29T03:28:34;11.50;99.90
851;DHT22;412;51.400;7.480;2022-09-29T03:31:04;11.40;99.90
851;DHT22;412;51.400;7.480;2022-09-29T03:33:31;11.30;99.90
851;DHT22;412;51.400;7.480;2022-09-29T03:35:56;11.40;99.90
851;DHT22;412;51.400;7.480;2022-09-29T03:38:22;11.30;99.90
851;DHT22;412;51.400;7.480;2022-09-29T03:40:48;11.30;99.90
851;DHT22;412;51.400;7.480;2022-09-29T03:43:13;11.30;99.90
851;DHT22;412;51.400;7.480;2022-09-29T03:45:47;11.30;99.90
851;DHT22;412;51.400;7.480;2022-09-29T03:48:13;11.20;99.90
851;DHT22;412;51.400;7.480;2022-09-29T03:50:39;11.20;99.90
851;DHT22;412;51.400;7.480;2022-09-29T03:53:05;11.20;99.90
851;DHT22;412;51.400;7.480;2022-09-29T03:55:30;11.30;99.90
851;DHT22;412;51.400;7.480;2022-09-29T03:57:56;11.10;99.90
851;DHT22;412;51.400;7.480;2022-09-29T04:00:22;11.10;99.90
851;DHT22;412;51.400;7.480;2022-09-29T04:02:47;11.10;99.90
851;DHT22;412;51.400;7.480;2022-09-29T04:05:13;11.10;99.90
851;DHT22;412;51.400;7.480;2022-09-29T04:07:39;11.00;99.90
851;DHT22;412;51.400;7.480;2022-09-29T04:10:05;11.00;99.90
851;DHT22;412;51.400;7.480;2022-09-29T04:12:30;11.00;99.90
851;DHT22;412;51.400;7.480;2022-09-29T04:14:56;11.00;99.90
851;DHT22;412;51.400;7.480;2022-09-29T04:17:22;10.90;99.90
851;DHT22;412;51.400;7.480;2022-09-29T04:19:47;11.00;99.90
851;DHT22;412;51.400;7.480;2022-09-29T04:22:14;10.90;99.90
851;DHT22;412;51.400;7.480;2022-09-29T04:24:43;10.90;99.90
851;DHT22;412;51.400;7.480;2022-09-29T04:27:09;10.90;99.90
851;DHT22;412;51.400;7.480;2022-09-29T04:29:34;10.90;99.90
851;DHT22;412;51.400;7.480;2022-09-29T04:32:00;10.80;99.90
851;DHT22;412;51.400;7.480;2022-09-29T04:34:26;10.80;99.90
851;DHT22;412;51.400;7.480;2022-09-29T04:36:51;10.80;99.90
851;DHT22;412;51.400;7.480;2022-09-29T04:39:17;10.80;99.90
851;DHT22;412;51.400;7.480;2022-09-29T04:41:43;10.90;99.90
851;DHT22;412;51.400;7.480;2022-09-29T04:44:09;10.90;99.90
851;DHT22;412;51.400;7.480;2022-09-29T04:46:35;10.80;99.90
851;DHT22;412;51.400;7.480;2022-09-29T04:49:01;10.80;99.90
851;DHT22;412;51.400;7.480;2022-09-29T04:51:26;10.80;99.90
851;DHT22;412;51.400;7.480;2022-09-29T04:53:52;10.80;99.90
851;DHT22;412;51.400;7.480;2022-09-29T04:56:18;10.90;99.90
851;DHT22;412;51.400;7.480;2022-09-29T04:58:44;10.70;99.90
851;DHT22;412;51.400;7.480;2022-09-29T05:01:11;10.80;99.90
851;DHT22;412;51.400;7.480;2022-09-29T05:03:40;10.70;99.90
851;DHT22;412;51.400;7.480;2022-09-29T05:06:07;10.70;99.90
851;DHT22;412;51.400;7.480;2022-09-29T05:08:34;10.70;99.90
851;DHT22;412;51.400;7.480;2022-09-29T05:11:04;10.70;99.90
851;DHT22;412;51.400;7.480;2022-09-29T05:13:31;10.70;99.90
851;DHT22;412;51.400;7.480;2022-09-29T05:15:57;10.70;99.90
851;DHT22;412;51.400;7.480;2022-09-29T05:18:26;10.70;99.90
851;DHT22;412;51.400;7.480;2022-09-29T05:20:51;10.70;99.90
851;DHT22;412;51.400;7.480;2022-09-29T05:23:18;10.60;99.90
851;DHT22;412;51.400;7.480;2022-09-29T05:25:44;10.60;99.90
851;DHT22;412;51.400;7.480;2022-09-29T05:28:10;10.60;99.90
851;DHT22;412;51.400;7.480;2022-09-29T05:30:37;10.60;99.90
851;DHT22;412;51.400;7.480;2022-09-29T05:33:05;10.50;99.90
851;DHT22;412;51.400;7.480;2022-09-29T05:35:31;10.50;99.90
851;DHT22;412;51.400;7.480;2022-09-29T05:37:56;10.50;99.90
851;DHT22;412;51.400;7.480;2022-09-29T05:40:22;10.50;99.90
851;DHT22;412;51.400;7.480;2022-09-29T05:42:49;10.50;99.90
851;DHT22;412;51.400;7.480;2022-09-29T05:45:15;10.50;99.90
851;DHT22;412;51.400;7.480;2022-09-29T05:47:42;10.50;99.90
851;DHT22;412;51.400;7.480;2022-09-29T05:50:09;10.50;99.90
851;DHT22;412;51.400;7.480;2022-09-29T05:52:36;10.50;99.90
851;DHT22;412;51.400;7.480;2022-09-29T05:55:02;10.50;99.90
851;DHT22;412;51.400;7.480;2022-09-29T05:57:28;10.50;99.90
851;DHT22;412;51.400;7.480;2022-09-29T05:59:54;10.50;99.90
851;DHT22;412;51.400;7.480;2022-09-29T06:02:20;10.50;99.90
851;DHT22;412;51.400;7.480;2022-09-29T06:04:46;10.50;99.90
851;DHT22;412;51.400;7.480;2022-09-29T06:07:12;10.50;99.90
851;DHT22;412;51.400;7.480;2022-09-29T06:09:37;10.50;99.90
851;DHT22;412;51.400;7.480;2022-09-29T06:12:04;10.40;99.90
851;DHT22;412;51.400;7.480;2022-09-29T06:14:29;10.50;99.90
851;DHT22;412;51.400;7.480;2022-09-29T06:16:55;10.90;99.90
851;DHT22;412;51.400;7.480;2022-09-29T06:19:21;11.30;99.90
851;DHT22;412;51.400;7.480;2022-09-29T06:21:46;12.10;99.90
851;DHT22;412;51.400;7.480;2022-09-29T06:24:12;13.00;99.90
851;DHT22;412;51.400;7.480;2022-09-29T06:26:38;13.40;99.90
851;DHT22;412;51.400;7.480;2022-09-29T06:29:03;13.80;99.90
851;DHT22;412;51.400;7.480;2022-09-29T06:31:30;14.10;99.90
851;DHT22;412;51.400;7.480;2022-09-29T06:33:58;14.30;99.90
851;DHT22;412;51.400;7.480;2022-09-29T06:39:15;14.50;99.90
851;DHT22;412;51.400;7.480;2022-09-29T06:41:41;14.60;99.80
851;DHT22;412;51.400;7.480;2022-09-29T06:44:13;14.60;99.90
851;DHT22;412;51.400;7.480;2022-09-29T06:46:38;14.70;99.90
851;DHT22;412;51.400;7.480;2022-09-29T06:49:04;15.10;99.90
851;DHT22;412;51.400;7.480;2022-09-29T06:51:30;15.40;99.90
851;DHT22;412;51.400;7.480;2022-09-29T06:53:55;15.60;99.90
851;DHT22;412;51.400;7.480;2022-09-29T06:56:21;15.90;99.90
851;DHT22;412;51.400;7.480;2022-09-29T06:58:47;16.00;99.60
851;DHT22;412;51.400;7.480;2022-09-29T07:01:13;16.10;99.40
851;DHT22;412;51.400;7.480;2022-09-29T07:03:39;16.30;99.20
851;DHT22;412;51.400;7.480;2022-09-29T07:06:07;16.30;98.70
851;DHT22;412;51.400;7.480;2022-09-29T07:08:34;16.40;98.70
851;DHT22;412;51.400;7.480;2022-09-29T07:11:01;16.60;98.70
851;DHT22;412;51.400;7.480;2022-09-29T07:13:30;16.70;98.00
851;DHT22;412;51.400;7.480;2022-09-29T07:16:11;16.80;97.00
851;DHT22;412;51.400;7.480;2022-09-29T07:18:39;17.00;96.00
851;DHT22;412;51.400;7.480;2022-09-29T07:21:10;16.90;95.60
851;DHT22;412;51.400;7.480;2022-09-29T07:23:37;16.90;95.00
851;DHT22;412;51.400;7.480;2022-09-29T07:26:04;16.80;96.50
851;DHT22;412;51.400;7.480;2022-09-29T07:28:31;16.90;96.30
851;DHT22;412;51.400;7.480;2022-09-29T07:31:01;16.90;95.70
851;DHT22;412;51.400;7.480;2022-09-29T07:33:27;16.90;95.30
851;DHT22;412;51.400;7.480;2022-09-29T07:35:54;16.90;95.50
851;DHT22;412;51.400;7.480;2022-09-29T07:38:20;17.00;95.50
851;DHT22;412;51.400;7.480;2022-09-29T07:40:46;16.90;95.30
851;DHT22;412;51.400;7.480;2022-09-29T07:43:12;16.90;95.60
851;DHT22;412;51.400;7.480;2022-09-29T07:45:38;17.00;95.30
851;DHT22;412;51.400;7.480;2022-09-29T07:48:03;16.80;93.80
851;DHT22;412;51.400;7.480;2022-09-29T07:50:29;16.80;95.20
851;DHT22;412;51.400;7.480;2022-09-29T07:52:56;16.70;93.90
851;DHT22;412;51.400;7.480;2022-09-29T07:55:21;16.60;96.60
851;DHT22;412;51.400;7.480;2022-09-29T07:57:48;16.70;96.40
851;DHT22;412;51.400;7.480;2022-09-29T08:00:14;16.30;94.30
851;DHT22;412;51.400;7.480;2022-09-29T08:02:42;16.20;95.90
851;DHT22;412;51.400;7.480;2022-09-29T08:05:08;16.30;97.10
851;DHT22;412;51.400;7.480;2022-09-29T08:07:34;16.50;97.00
851;DHT22;412;51.400;7.480;2022-09-29T08:10:00;16.70;96.30
851;DHT22;412;51.400;7.480;2022-09-29T08:12:26;17.00;97.30
851;DHT22;412;51.400;7.480;2022-09-29T08:14:52;17.10;96.00
851;DHT22;412;51.400;7.480;2022-09-29T08:17:17;17.00;95.10
851;DHT22;412;51.400;7.480;2022-09-29T08:19:43;17.10;97.80
851;DHT22;412;51.400;7.480;2022-09-29T08:22:09;17.10;98.00
851;DHT22;412;51.400;7.480;2022-09-29T08:24:34;17.20;98.10
851;DHT22;412;51.400;7.480;2022-09-29T08:27:02;17.40;98.10
851;DHT22;412;51.400;7.480;2022-09-29T08:29:29;17.50;97.40
851;DHT22;412;51.400;7.480;2022-09-29T08:31:55;17.60;96.70
851;DHT22;412;51.400;7.480;2022-09-29T08:34:21;17.60;97.10
851;DHT22;412;51.400;7.480;2022-09-29T08:36:47;17.70;97.20
851;DHT22;412;51.400;7.480;2022-09-29T08:39:12;17.80;97.40
851;DHT22;412;51.400;7.480;2022-09-29T08:44:29;17.90;96.50
851;DHT22;412;51.400;7.480;2022-09-29T08:47:03;17.90;96.10
851;DHT22;412;51.400;7.480;2022-09-29T08:49:41;18.00;96.20
851;DHT22;412;51.400;7.480;2022-09-29T08:52:17;18.10;96.10
851;DHT22;412;51.400;7.480;2022-09-29T08:54:45;18.10;96.60
851;DHT22;412;51.400;7.480;2022-09-29T08:57:17;18.20;96.20
851;DHT22;412;51.400;7.480;2022-09-29T08:59:53;18.20;96.00
851;DHT22;412;51.400;7.480;2022-09-29T09:05:21;18.30;95.40
851;DHT22;412;51.400;7.480;2022-09-29T09:21:41;17.80;92.90
851;DHT22;412;51.400;7.480;2022-09-29T09:26:42;17.50;93.60
851;DHT22;412;51.400;7.480;2022-09-29T09:29:26;17.40;93.90
851;DHT22;412;51.400;7.480;2022-09-29T09:32:00;17.40;95.10
851;DHT22;412;51.400;7.480;2022-09-29T09:34:38;17.30;96.40
851;DHT22;412;51.400;7.480;2022-09-29T09:37:06;17.30;97.20
851;DHT22;412;51.400;7.480;2022-09-29T09:39:58;17.30;96.80
851;DHT22;412;51.400;7.480;2022-09-29T09:42:27;17.50;96.20
851;DHT22;412;51.400;7.480;2022-09-29T09:45:47;17.70;95.40
851;DHT22;412;51.400;7.480;2022-09-29T09:48:05;17.80;94.20
851;DHT22;412;51.400;7.480;2022-09-29T09:50:37;18.00;94.50
851;DHT22;412;51.400;7.480;2022-09-29T09:53:11;18.20;92.80
851;DHT22;412;51.400;7.480;2022-09-29T09:55:39;18.30;91.90
851;DHT22;412;51.400;7.480;2022-09-29T10:00:48;18.50;90.60
851;DHT22;412;51.400;7.480;2022-09-29T10:03:15;18.30;89.50
851;DHT22;412;51.400;7.480;2022-09-29T10:05:43;18.30;90.70
851;DHT22;412;51.400;7.480;2022-09-29T10:08:27;18.10;90.60
851;DHT22;412;51.400;7.480;2022-09-29T10:10:54;18.10;91.00
851;DHT22;412;51.400;7.480;2022-09-29T10:13:21;18.20;91.40
851;DHT22;412;51.400;7.480;2022-09-29T10:18:49;18.90;90.50
851;DHT22;412;51.400;7.480;2022-09-29T10:24:05;19.50;86.60
851;DHT22;412;51.400;7.480;2022-09-29T10:26:46;19.80;85.00
851;DHT22;412;51.400;7.480;2022-09-29T10:29:28;20.00;84.00
851;DHT22;412;51.400;7.480;2022-09-29T10:34:27;19.70;80.20
851;DHT22;412;51.400;7.480;2022-09-29T10:36:56;19.50;82.40
851;DHT22;412;51.400;7.480;2022-09-29T10:39:43;19.40;83.30
851;DHT22;412;51.400;7.480;2022-09-29T10:42:24;19.50;81.80
851;DHT22;412;51.400;7.480;2022-09-29T10:45:09;19.80;81.10
851;DHT22;412;51.400;7.480;2022-09-29T10:47:35;20.00;79.70
851;DHT22;412;51.400;7.480;2022-09-29T10:50:14;20.30;79.80
851;DHT22;412;51.400;7.480;2022-09-29T10:53:00;20.50;78.50
851;DHT22;412;51.400;7.480;2022-09-29T10:55:31;20.60;78.20
851;DHT22;412;51.400;7.480;2022-09-29T10:58:00;20.80;76.40
851;DHT22;412;51.400;7.480;2022-09-29T11:00:46;21.10;75.20
851;DHT22;412;51.400;7.480;2022-09-29T11:03:19;21.00;71.00
851;DHT22;412;51.400;7.480;2022-09-29T11:05:57;21.20;70.80
851;DHT22;412;51.400;7.480;2022-09-29T11:08:24;21.00;71.60
851;DHT22;412;51.400;7.480;2022-09-29T11:11:20;20.70;70.90
851;DHT22;412;51.400;7.480;2022-09-29T11:13:48;20.40;72.00
851;DHT22;412;51.400;7.480;2022-09-29T11:16:32;20.20;74.20
851;DHT22;412;51.400;7.480;2022-09-29T11:19:12;19.90;78.60
851;DHT22;412;51.400;7.480;2022-09-29T11:30:38;19.00;82.50
851;DHT22;412;51.400;7.480;2022-09-29T11:33:18;18.70;86.90
851;DHT22;412;51.400;7.480;2022-09-29T11:35:57;18.70;87.20
851;DHT22;412;51.400;7.480;2022-09-29T11:47:07;18.80;82.60
851;DHT22;412;51.400;7.480;2022-09-29T11:55:42;18.30;82.00
851;DHT22;412;51.400;7.480;2022-09-29T11:58:29;18.10;83.20
851;DHT22;412;51.400;7.480;2022-09-29T12:01:17;17.90;83.60
851;DHT22;412;51.400;7.480;2022-09-29T12:12:11;17.50;84.90
851;DHT22;412;51.400;7.480;2022-09-29T12:17:14;17.30;84.10
851;DHT22;412;51.400;7.480;2022-09-29T12:19:42;17.30;87.10
851;DHT22;412;51.400;7.480;2022-09-29T12:22:14;17.30;88.20
851;DHT22;412;51.400;7.480;2022-09-29T12:24:49;17.30;86.80
851;DHT22;412;51.400;7.480;2022-09-29T12:27:28;17.40;87.00
851;DHT22;412;51.400;7.480;2022-09-29T12:30:05;17.50;86.20
851;DHT22;412;51.400;7.480;2022-09-29T12:33:15;17.70;86.10
851;DHT22;412;51.400;7.480;2022-09-29T12:35:45;17.80;86.60
851;DHT22;412;51.400;7.480;2022-09-29T12:38:33;17.90;84.80
851;DHT22;412;51.400;7.480;2022-09-29T12:41:16;17.90;82.40
851;DHT22;412;51.400;7.480;2022-09-29T12:46:42;17.90;83.80
851;DHT22;412;51.400;7.480;2022-09-29T12:49:28;17.90;82.90
851;DHT22;412;51.400;7.480;2022-09-29T12:51:56;17.90;83.10
851;DHT22;412;51.400;7.480;2022-09-29T12:54:50;17.90;83.30
851;DHT22;412;51.400;7.480;2022-09-29T12:57:15;17.80;83.40
851;DHT22;412;51.400;7.480;2022-09-29T13:03:00;17.80;80.60
851;DHT22;412;51.400;7.480;2022-09-29T13:13:57;17.60;87.80
851;DHT22;412;51.400;7.480;2022-09-29T13:16:39;17.70;89.30
851;DHT22;412;51.400;7.480;2022-09-29T13:25:19;17.70;90.10
851;DHT22;412;51.400;7.480;2022-09-29T13:27:47;17.70;84.50
851;DHT22;412;51.400;7.480;2022-09-29T13:30:16;17.60;85.70
851;DHT22;412;51.400;7.480;2022-09-29T13:33:08;17.60;85.80
851;DHT22;412;51.400;7.480;2022-09-29T13:35:39;17.50;86.90
851;DHT22;412;51.400;7.480;2022-09-29T13:38:14;17.40;86.90
851;DHT22;412;51.400;7.480;2022-09-29T13:49:02;17.70;90.90
851;DHT22;412;51.400;7.480;2022-09-29T13:54:20;17.80;89.20
851;DHT22;412;51.400;7.480;2022-09-29T13:56:51;17.80;84.70
851;DHT22;412;51.400;7.480;2022-09-29T13:59:23;17.80;84.50
851;DHT22;412;51.400;7.480;2022-09-29T14:01:50;17.80;90.10
851;DHT22;412;51.400;7.480;2022-09-29T14:04:52;17.90;89.40
851;DHT22;412;51.400;7.480;2022-09-29T14:07:48;17.90;84.60
851;DHT22;412;51.400;7.480;2022-09-29T14:13:13;17.80;85.60
851;DHT22;412;51.400;7.480;2022-09-29T14:15:44;17.70;87.00
851;DHT22;412;51.400;7.480;2022-09-29T14:18:31;17.60;86.90
851;DHT22;412;51.400;7.480;2022-09-29T14:21:00;17.50;88.10
851;DHT22;412;51.400;7.480;2022-09-29T14:29:32;17.20;87.80
851;DHT22;412;51.400;7.480;2022-09-29T14:32:01;17.20;90.50
851;DHT22;412;51.400;7.480;2022-09-29T14:34:32;17.20;91.20
851;DHT22;412;51.400;7.480;2022-09-29T14:36:59;17.10;90.80
851;DHT22;412;51.400;7.480;2022-09-29T14:39:26;17.10;91.10
851;DHT22;412;51.400;7.480;2022-09-29T14:41:53;17.00;91.60
851;DHT22;412;51.400;7.480;2022-09-29T14:44:27;16.90;91.00
851;DHT22;412;51.400;7.480;2022-09-29T14:47:30;16.90;92.30
851;DHT22;412;51.400;7.480;2022-09-29T14:53:50;16.70;93.60
851;DHT22;412;51.400;7.480;2022-09-29T14:56:24;16.60;93.00
851;DHT22;412;51.400;7.480;2022-09-29T14:59:23;16.60;93.60
851;DHT22;412;51.400;7.480;2022-09-29T15:02:18;16.60;94.60
851;DHT22;412;51.400;7.480;2022-09-29T15:04:45;16.40;88.30
851;DHT22;412;51.400;7.480;2022-09-29T15:07:29;16.20;86.60
851;DHT22;412;51.400;7.480;2022-09-29T15:09:56;16.20;87.50
851;DHT22;412;51.400;7.480;2022-09-29T15:12:28;16.20;91.00
851;DHT22;412;51.400;7.480;2022-09-29T15:14:55;16.30;93.40
851;DHT22;412;51.400;7.480;2022-09-29T15:17:47;16.30;92.90
851;DHT22;412;51.400;7.480;2022-09-29T15:20:30;16.30;93.90
851;DHT22;412;51.400;7.480;2022-09-29T15:23:24;16.20;94.50
851;DHT22;412;51.400;7.480;2022-09-29T15:25:55;16.20;95.20
851;DHT22;412;51.400;7.480;2022-09-29T15:28:28;16.20;94.40
851;DHT22;412;51.400;7.480;2022-09-29T15:31:01;16.10;94.00
851;DHT22;412;51.400;7.480;2022-09-29T15:33:29;16.10;94.60
851;DHT22;412;51.400;7.480;2022-09-29T15:36:07;16.10;95.20
851;DHT22;412;51.400;7.480;2022-09-29T15:38:36;16.10;95.70
851;DHT22;412;51.400;7.480;2022-09-29T15:41:15;16.20;96.10
851;DHT22;412;51.400;7.480;2022-09-29T15:49:21;16.30;94.80
851;DHT22;412;51.400;7.480;2022-09-29T15:52:02;16.30;94.50
851;DHT22;412;51.400;7.480;2022-09-29T15:54:31;16.40;95.20
851;DHT22;412;51.400;7.480;2022-09-29T15:57:02;16.40;95.90
851;DHT22;412;51.400;7.480;2022-09-29T15:59:49;16.40;95.90
851;DHT22;412;51.400;7.480;2022-09-29T16:04:55;16.40;95.90
851;DHT22;412;51.400;7.480;2022-09-29T16:07:30;16.40;95.30
851;DHT22;412;51.400;7.480;2022-09-29T16:10:14;16.30;95.80
851;DHT22;412;51.400;7.480;2022-09-29T16:13:01;16.20;95.90
851;DHT22;412;51.400;7.480;2022-09-29T16:15:35;16.20;96.10
851;DHT22;412;51.400;7.480;2022-09-29T16:18:07;16.10;96.20
851;DHT22;412;51.400;7.480;2022-09-29T16:20:34;16.10;97.10
851;DHT22;412;51.400;7.480;2022-09-29T16:23:13;16.00;97.10
851;DHT22;412;51.400;7.480;2022-09-29T16:25:41;15.90;97.40
851;DHT22;412;51.400;7.480;2022-09-29T16:28:29;15.90;97.70
851;DHT22;412;51.400;7.480;2022-09-29T16:31:04;15.80;97.90
851;DHT22;412;51.400;7.480;2022-09-29T16:33:33;15.70;97.60
851;DHT22;412;51.400;7.480;2022-09-29T16:36:22;15.70;98.20
851;DHT22;412;51.400;7.480;2022-09-29T16:38:50;15.60;98.40
851;DHT22;412;51.400;7.480;2022-09-29T16:41:30;15.50;98.80
851;DHT22;412;51.400;7.480;2022-09-29T16:46:56;15.40;99.50
851;DHT22;412;51.400;7.480;2022-09-29T16:49:27;15.30;99.50
851;DHT22;412;51.400;7.480;2022-09-29T16:51:55;15.30;99.60
851;DHT22;412;51.400;7.480;2022-09-29T16:54:27;15.20;99.70
851;DHT22;412;51.400;7.480;2022-09-29T16:57:21;15.20;99.30
851;DHT22;412;51.400;7.480;2022-09-29T16:59:54;15.10;99.00
851;DHT22;412;51.400;7.480;2022-09-29T17:02:21;15.00;98.80
851;DHT22;412;51.400;7.480;2022-09-29T17:04:48;15.00;99.10
851;DHT22;412;51.400;7.480;2022-09-29T17:07:15;14.90;99.20
851;DHT22;412;51.400;7.480;2022-09-29T17:09:53;14.80;99.40
851;DHT22;412;51.400;7.480;2022-09-29T17:12:21;14.70;99.50
851;DHT22;412;51.400;7.480;2022-09-29T17:14:47;14.70;99.80
851;DHT22;412;51.400;7.480;2022-09-29T17:17:23;14.60;99.80
851;DHT22;412;51.400;7.480;2022-09-29T17:19:50;14.60;99.70
851;DHT22;412;51.400;7.480;2022-09-29T17:22:31;14.70;99.70
851;DHT22;412;51.400;7.480;2022-09-29T17:24:59;14.60;99.30
851;DHT22;412;51.400;7.480;2022-09-29T17:27:26;14.60;99.40
851;DHT22;412;51.400;7.480;2022-09-29T17:30:12;14.50;99.80
851;DHT22;412;51.400;7.480;2022-09-29T17:32:46;14.40;99.90
851;DHT22;412;51.400;7.480;2022-09-29T17:35:13;14.30;99.90
851;DHT22;412;51.400;7.480;2022-09-29T17:37:42;14.20;99.90
851;DHT22;412;51.400;7.480;2022-09-29T17:42:41;14.10;99.90
851;DHT22;412;51.400;7.480;2022-09-29T17:45:12;14.00;99.90
851;DHT22;412;51.400;7.480;2022-09-29T17:47:37;13.90;99.90
851;DHT22;412;51.400;7.480;2022-09-29T17:50:27;13.90;99.90
851;DHT22;412;51.400;7.480;2022-09-29T17:52:57;13.90;99.90
851;DHT22;412;51.400;7.480;2022-09-29T17:55:24;13.90;99.90
851;DHT22;412;51.400;7.480;2022-09-29T17:57:51;13.90;99.90
851;DHT22;412;51.400;7.480;2022-09-29T18:00:27;13.90;99.90
851;DHT22;412;51.400;7.480;2022-09-29T18:02:53;13.80;99.90
851;DHT22;412;51.400;7.480;2022-09-29T18:05:26;13.80;99.90
851;DHT22;412;51.400;7.480;2022-09-29T18:07:54;13.70;99.90
851;DHT22;412;51.400;7.480;2022-09-29T18:10:49;13.70;99.90
851;DHT22;412;51.400;7.480;2022-09-29T18:13:15;13.70;99.90
851;DHT22;412;51.400;7.480;2022-09-29T18:15:41;13.60;99.90
851;DHT22;412;51.400;7.480;2022-09-29T18:18:11;13.50;99.90
851;DHT22;412;51.400;7.480;2022-09-29T18:20:40;13.50;99.90
851;DHT22;412;51.400;7.480;2022-09-29T18:23:06;13.40;99.90
851;DHT22;412;51.400;7.480;2022-09-29T18:25:33;13.30;99.90
851;DHT22;412;51.400;7.480;2022-09-29T18:28:00;13.30;99.90
851;DHT22;412;51.400;7.480;2022-09-29T18:30:29;13.30;99.90
851;DHT22;412;51.400;7.480;2022-09-29T18:32:57;13.20;99.90
851;DHT22;412;51.400;7.480;2022-09-29T18:35:31;13.20;99.90
851;DHT22;412;51.400;7.480;2022-09-29T18:37:58;13.20;99.90
851;DHT22;412;51.400;7.480;2022-09-29T18:40:25;13.20;99.90
851;DHT22;412;51.400;7.480;2022-09-29T18:42:52;13.20;99.90
851;DHT22;412;51.400;7.480;2022-09-29T18:45:22;13.10;99.90
851;DHT22;412;51.400;7.480;2022-09-29T18:47:52;13.10;99.90
851;DHT22;412;51.400;7.480;2022-09-29T18:50:28;13.00;99.90
851;DHT22;412;51.400;7.480;2022-09-29T18:52:55;13.00;99.90
851;DHT22;412;51.400;7.480;2022-09-29T18:55:23;13.00;99.90
851;DHT22;412;51.400;7.480;2022-09-29T18:57:53;13.00;99.90
851;DHT22;412;51.400;7.480;2022-09-29T19:00:21;13.00;99.90
851;DHT22;412;51.400;7.480;2022-09-29T19:02:47;13.00;99.90
851;DHT22;412;51.400;7.480;2022-09-29T19:05:22;13.10;99.90
851;DHT22;412;51.400;7.480;2022-09-29T19:07:53;13.00;99.90
851;DHT22;412;51.400;7.480;2022-09-29T19:10:19;13.00;99.90
851;DHT22;412;51.400;7.480;2022-09-29T19:12:45;13.00;99.90
851;DHT22;412;51.400;7.480;2022-09-29T19:15:14;12.90;99.90
851;DHT22;412;51.400;7.480;2022-09-29T19:17:42;12.90;99.90
851;DHT22;412;51.400;7.480;2022-09-29T19:20:08;12.90;99.90
851;DHT22;412;51.400;7.480;2022-09-29T19:22:35;12.80;99.90
851;DHT22;412;51.400;7.480;2022-09-29T19:25:08;12.80;99.90
851;DHT22;412;51.400;7.480;2022-09-29T19:27:36;12.80;99.90
851;DHT22;412;51.400;7.480;2022-09-29T19:30:01;12.70;99.90
851;DHT22;412;51.400;7.480;2022-09-29T19:32:28;12.70;99.90
851;DHT22;412;51.400;7.480;2022-09-29T19:34:54;12.70;99.90
851;DHT22;412;51.400;7.480;2022-09-29T19:37:20;12.60;99.90
851;DHT22;412;51.400;7.480;2022-09-29T19:39:46;12.60;99.90
851;DHT22;412;51.400;7.480;2022-09-29T19:42:12;12.60;99.90
851;DHT22;412;51.400;7.480;2022-09-29T19:44:38;12.60;99.90